Aviation Digital Data Service (ADDS)

Output produced by METARs form (1551 UTC 30 September 2014)
found at http://www.aviationweather.gov/adds/metars/
 
SEGU 301500Z 23006KT 9999 SCT023 OVC090 25/19 Q1012 RMK A2989 NOSIG
SEGU 300926Z 3012/0112 22006KT 9999 SCT020 
     FM301800 18005KT 9999 FEW020 
     FM010000 22014KT 9999 FEW020 
     TEMPO 0101/0105 CAVOK TX32/3020Z TN21/0111Z
       
SEMT 301500Z 18015KT 9999 SCT020 25/21 Q1012
SEMT 300926Z 3012/0112 21010KT 9999 SCT023 
     FM301800 30010KT 9999 FEW023 
     FM010300 19005KT 9999 BKN023 TX30/3020Z TN21/0110Z